createdAt,value
2022-08-03T05:02:22.035Z,95583.13
2022-08-03T05:04:50.409Z,95565.03
2022-08-03T05:07:24.163Z,95572.81
2022-08-03T05:10:01.781Z,95574.22
2022-08-03T05:12:33.050Z,95577.94
2022-08-03T05:15:01.179Z,95575.78
2022-08-03T05:17:30.316Z,95587.41
2022-08-03T05:19:58.338Z,95582.81
2022-08-03T05:22:26.113Z,95582.59
2022-08-03T05:24:59.676Z,95582.97
2022-08-03T05:27:27.397Z,95588.19
2022-08-03T05:29:55.231Z,95584.91
2022-08-03T05:32:22.967Z,95586.47
2022-08-03T05:34:52.120Z,95584.13
2022-08-03T05:37:20.021Z,95587.59
2022-08-03T05:39:47.716Z,95585.53
2022-08-03T05:42:16.815Z,95588.78
2022-08-03T05:44:44.741Z,95592.09
2022-08-03T05:47:12.550Z,95586.63
2022-08-03T05:49:40.310Z,95579.13
2022-08-03T05:52:15.472Z,95582.41
2022-08-03T05:54:56.421Z,95578.66
2022-08-03T05:57:25.745Z,95575.63
2022-08-03T05:59:58.088Z,95574.19
2022-08-03T06:02:26.870Z,95567.56
2022-08-03T06:04:54.675Z,95574.81
2022-08-03T06:07:23.961Z,95581.56
2022-08-03T06:10:34.554Z,95575.75
2022-08-03T06:12:41.322Z,95572.28
2022-08-03T06:15:11.537Z,95583.00
2022-08-03T06:17:47.153Z,95576.75
2022-08-03T06:20:17.114Z,95573.53
2022-08-03T06:22:50.757Z,95570.25
2022-08-03T06:25:19.408Z,95576.22
2022-08-03T06:27:49.404Z,95575.94
2022-08-03T06:30:21.287Z,95568.56
2022-08-03T06:32:51.982Z,95578.69
2022-08-03T06:35:20.500Z,95586.91
2022-08-03T06:37:51.033Z,95576.72
2022-08-03T06:40:28.489Z,95574.16
2022-08-03T06:42:56.577Z,95574.03
2022-08-03T06:45:24.381Z,95576.72
2022-08-03T06:48:02.216Z,95578.91
2022-08-03T06:50:30.353Z,95585.09
2022-08-03T06:52:59.850Z,95575.09
2022-08-03T06:55:27.869Z,95576.63
2022-08-03T06:57:55.716Z,95578.13
2022-08-03T07:00:28.013Z,95578.59
2022-08-03T07:02:58.313Z,95578.03
2022-08-03T07:05:27.424Z,95586.75
2022-08-03T07:07:56.860Z,95577.06
2022-08-03T07:10:25.985Z,95584.03
2022-08-03T07:12:56.539Z,95576.72
2022-08-03T07:15:53.921Z,95575.44
2022-08-03T07:18:12.699Z,95575.63
2022-08-03T07:20:40.840Z,95574.88
2022-08-03T07:23:09.922Z,95574.69
2022-08-03T07:25:45.210Z,95566.63
2022-08-03T07:28:12.914Z,95565.53
2022-08-03T07:30:40.880Z,95567.81
2022-08-03T07:33:08.649Z,95562.94
2022-08-03T07:35:36.383Z,95558.56
2022-08-03T07:38:04.512Z,95559.81
2022-08-03T07:40:32.364Z,95552.00
2022-08-03T07:43:09.006Z,95555.38
2022-08-03T07:45:39.587Z,95557.41
2022-08-03T07:48:11.993Z,95556.03
2022-08-03T07:50:40.207Z,95555.44
2022-08-03T07:53:07.967Z,95552.31
2022-08-03T07:55:36.186Z,95555.59
2022-08-03T07:58:07.588Z,95558.53
2022-08-03T08:00:35.429Z,95548.69
2022-08-03T08:03:03.465Z,95540.22
2022-08-03T08:05:31.269Z,95543.81
2022-08-03T08:07:59.111Z,95547.47
2022-08-03T08:10:27.052Z,95540.91
2022-08-03T08:12:55.673Z,95537.84
2022-08-03T08:15:25.453Z,95540.13
2022-08-03T08:17:55.325Z,95535.16
2022-08-03T08:20:30.520Z,95531.09
2022-08-03T08:23:01.170Z,95525.56
2022-08-03T08:25:30.676Z,95533.50
2022-08-03T08:28:31.174Z,95536.34
2022-08-03T08:30:51.400Z,95532.59
2022-08-03T08:33:22.939Z,95526.28
2022-08-03T08:35:51.563Z,95535.09
2022-08-03T08:38:19.341Z,95534.81
2022-08-03T08:40:47.455Z,95534.84
2022-08-03T08:43:15.209Z,95530.00
2022-08-03T08:45:43.571Z,95532.19
2022-08-03T08:48:14.631Z,95535.16
2022-08-03T08:50:43.008Z,95534.78
2022-08-03T08:53:18.235Z,95537.47
2022-08-03T08:55:58.016Z,95532.22
2022-08-03T08:58:30.568Z,95533.09
2022-08-03T09:00:58.422Z,95524.97
2022-08-03T09:03:30.261Z,95523.16
2022-08-03T09:06:00.600Z,95520.44
2022-08-03T09:08:29.427Z,95524.50
2022-08-03T09:10:57.232Z,95519.78
2022-08-03T09:13:25.348Z,95518.63
2022-08-03T09:16:10.788Z,95515.41
2022-08-03T09:18:40.724Z,95516.97
2022-08-03T09:21:32.095Z,95523.03
2022-08-03T09:24:04.840Z,95522.69
2022-08-03T09:26:35.928Z,95518.34
2022-08-03T09:29:09.697Z,95513.97
2022-08-03T09:31:43.246Z,95514.81
2022-08-03T09:34:14.839Z,95517.19
2022-08-03T09:36:44.045Z,95512.00
2022-08-03T09:39:13.711Z,95504.06
2022-08-03T09:41:43.144Z,95513.63
2022-08-03T09:44:24.314Z,95510.41
2022-08-03T09:46:57.017Z,95514.75
2022-08-03T09:49:26.359Z,95514.31
2022-08-03T09:52:27.317Z,95507.91
2022-08-03T09:54:42.748Z,95517.94
2022-08-03T09:57:22.002Z,95518.38
2022-08-03T09:59:49.964Z,95515.16
2022-08-03T10:02:25.249Z,95518.34
2022-08-03T10:04:55.266Z,95510.38
2022-08-03T10:07:24.649Z,95517.94
2022-08-03T10:09:58.417Z,95513.94
2022-08-03T10:12:48.745Z,95513.47
2022-08-03T10:16:21.917Z,95515.38
2022-08-03T10:18:05.656Z,95501.25
2022-08-03T10:20:38.678Z,95500.56
2022-08-03T10:23:06.795Z,95499.75
2022-08-03T10:25:36.752Z,95497.78
2022-08-03T10:28:05.837Z,95503.34
2022-08-03T10:30:34.297Z,95491.25
2022-08-03T10:33:12.262Z,95500.16
2022-08-03T10:35:58.631Z,95498.09
2022-08-03T10:38:33.807Z,95493.53
2022-08-03T10:41:03.127Z,95501.31
2022-08-03T10:43:37.374Z,95495.81
2022-08-03T10:46:09.013Z,95492.19
2022-08-03T10:48:38.062Z,95488.81
2022-08-03T10:51:07.608Z,95490.06
2022-08-03T10:53:37.480Z,95483.81
2022-08-03T10:56:35.454Z,95487.88
2022-08-03T10:59:11.132Z,95472.06
2022-08-03T11:01:58.315Z,95471.84
2022-08-03T11:04:27.182Z,95462.69
2022-08-03T11:07:21.722Z,95465.41
2022-08-03T11:09:53.668Z,95466.97
2022-08-03T11:12:30.115Z,95458.22
2022-08-03T11:15:00.785Z,95462.59
2022-08-03T11:17:28.601Z,95465.81
2022-08-03T11:19:57.794Z,95450.50
2022-08-03T11:22:54.435Z,95454.63
2022-08-03T11:25:53.737Z,95460.03
2022-08-03T11:28:29.376Z,95462.13
2022-08-03T11:31:39.222Z,95457.03
2022-08-03T11:34:06.750Z,95455.50
2022-08-03T11:37:13.236Z,95450.41
2022-08-03T11:39:43.681Z,95455.50
2022-08-03T11:42:39.940Z,95459.13
2022-08-03T11:45:09.774Z,95451.22
2022-08-03T11:47:50.658Z,95454.53
2022-08-03T11:50:19.948Z,95457.69
2022-08-03T11:52:48.908Z,95452.81
2022-08-03T11:55:20.504Z,95451.97
2022-08-03T11:59:10.817Z,95445.06
2022-08-03T12:00:37.236Z,95449.59
2022-08-03T12:03:07.826Z,95442.22
2022-08-03T12:05:51.280Z,95439.41
2022-08-03T12:08:31.284Z,95437.03
2022-08-03T12:11:03.024Z,95431.78
2022-08-03T12:14:33.106Z,95431.25
2022-08-03T12:16:28.589Z,95433.09
2022-08-03T12:18:57.831Z,95423.81
2022-08-03T12:21:25.673Z,95430.69
2022-08-03T12:23:59.011Z,95417.31
2022-08-03T12:26:28.948Z,95425.56
2022-08-03T12:28:56.932Z,95423.13
2022-08-03T12:31:24.939Z,95414.50
2022-08-03T12:33:58.829Z,95416.38
2022-08-03T12:36:27.821Z,95415.56
2022-08-03T12:38:58.141Z,95415.06
2022-08-03T12:41:33.970Z,95414.09
2022-08-03T12:44:03.372Z,95424.44
2022-08-03T12:46:33.680Z,95414.22
2022-08-03T12:49:07.187Z,95416.53
2022-08-03T12:51:37.206Z,95407.19
2022-08-03T12:54:06.401Z,95409.75
2022-08-03T12:56:36.155Z,95412.72
2022-08-03T12:59:25.027Z,95410.72
2022-08-03T13:02:01.186Z,95395.78
2022-08-03T13:04:33.855Z,95397.06
2022-08-03T13:07:03.476Z,95408.31
2022-08-03T13:09:33.185Z,95394.97
2022-08-03T13:12:09.843Z,95392.41
2022-08-03T13:14:38.057Z,95400.91
2022-08-03T13:17:07.137Z,95389.47
2022-08-03T13:19:35.125Z,95390.75
2022-08-03T13:22:04.761Z,95398.66
2022-08-03T13:24:34.543Z,95388.22
2022-08-03T13:28:00.929Z,95391.72
2022-08-03T13:29:57.250Z,95393.81
2022-08-03T13:32:25.403Z,95389.94
2022-08-03T13:34:53.279Z,95384.56
2022-08-03T13:37:21.749Z,95388.34
2022-08-03T13:39:58.877Z,95393.13
2022-08-03T13:42:28.856Z,95382.09
2022-08-03T13:44:58.106Z,95385.41
2022-08-03T13:47:25.864Z,95376.28
2022-08-03T13:49:59.510Z,95377.19
2022-08-03T13:52:28.495Z,95372.59
2022-08-03T13:54:56.351Z,95373.16
2022-08-03T13:58:11.401Z,95370.41
2022-08-03T14:00:16.129Z,95363.84
2022-08-03T14:03:02.727Z,95364.97
2022-08-03T14:05:32.708Z,95362.47
2022-08-03T14:08:04.869Z,95366.19
2022-08-03T14:10:33.511Z,95357.91
2022-08-03T14:13:01.360Z,95359.75
2022-08-03T14:15:30.633Z,95351.28
2022-08-03T14:17:59.103Z,95357.34
2022-08-03T14:20:37.861Z,95359.84
2022-08-03T14:23:14.226Z,95349.50
2022-08-03T14:25:44.200Z,95349.88
2022-08-03T14:28:20.905Z,95354.47
2022-08-03T14:30:50.081Z,95344.38
2022-08-03T14:33:17.981Z,95349.06
2022-08-03T14:35:45.908Z,95343.03
2022-08-03T14:38:15.917Z,95351.28
2022-08-03T14:40:44.257Z,95348.03
2022-08-03T14:43:12.181Z,95352.84
2022-08-03T14:45:40.002Z,95351.63
2022-08-03T14:50:28.893Z,95337.13
2022-08-03T14:50:57.402Z,95342.50
2022-08-03T14:53:25.813Z,95348.47
2022-08-03T14:55:53.637Z,95335.63
2022-08-03T14:58:22.223Z,95341.25
2022-08-03T15:00:51.115Z,95330.94
2022-08-03T15:03:23.758Z,95339.09
2022-08-03T15:05:52.840Z,95336.25
2022-08-03T15:08:20.838Z,95335.75
2022-08-03T15:10:49.227Z,95328.22
2022-08-03T15:13:18.084Z,95325.31
2022-08-03T15:15:45.890Z,95320.50
2022-08-03T15:18:13.737Z,95322.47
2022-08-03T15:20:45.814Z,95320.41
2022-08-03T15:23:15.501Z,95319.22
2022-08-03T15:26:32.120Z,95319.56
2022-08-03T15:28:31.485Z,95314.31
2022-08-03T15:30:59.475Z,95320.72
2022-08-03T15:33:27.303Z,95320.63
2022-08-03T15:35:57.244Z,95321.63
2022-08-03T15:38:26.094Z,95316.84
2022-08-03T15:40:54.466Z,95323.09
2022-08-03T15:43:22.437Z,95321.09
2022-08-03T15:46:06.836Z,95320.28
2022-08-03T15:48:38.079Z,95318.66
2022-08-03T15:51:07.877Z,95317.44
2022-08-03T15:53:36.251Z,95314.59
2022-08-03T15:56:12.136Z,95311.78
2022-08-03T15:59:10.360Z,95311.75
2022-08-03T16:01:30.294Z,95309.59
2022-08-03T16:03:58.088Z,95305.22
2022-08-03T16:06:34.934Z,95309.59
2022-08-03T16:09:03.493Z,95307.94
2022-08-03T16:11:31.617Z,95305.09
2022-08-03T16:14:12.964Z,95307.09
2022-08-03T16:16:47.198Z,95316.31
2022-08-03T16:19:14.989Z,95313.81
2022-08-03T16:21:48.545Z,95307.72
2022-08-03T16:24:19.881Z,95302.66
2022-08-03T16:26:55.826Z,95311.06
2022-08-03T16:29:24.122Z,95307.13
2022-08-03T16:31:52.631Z,95305.53
2022-08-03T16:34:20.596Z,95306.69
2022-08-03T16:36:49.713Z,95300.13
2022-08-03T16:39:17.596Z,95300.59
2022-08-03T16:42:00.622Z,95303.72
2022-08-03T16:44:30.387Z,95308.00
2022-08-03T16:46:58.304Z,95304.16
2022-08-03T16:49:55.291Z,95304.31
2022-08-03T16:52:16.842Z,95306.25
2022-08-03T16:54:52.589Z,95302.22
2022-08-03T16:57:56.235Z,95298.38
2022-08-03T17:00:12.162Z,95295.41
2022-08-03T17:03:01.138Z,95298.88
2022-08-03T17:05:43.555Z,95300.34
2022-08-03T17:08:26.209Z,95304.09
2022-08-03T17:10:55.666Z,95297.38
2022-08-03T17:13:38.885Z,95294.00
2022-08-03T17:16:10.412Z,95301.22
2022-08-03T17:18:42.308Z,95301.31
2022-08-03T17:21:16.817Z,95308.66
2022-08-03T17:23:55.856Z,95312.03
2022-08-03T17:26:30.470Z,95305.94
2022-08-03T17:29:12.881Z,95307.50
2022-08-03T17:31:49.432Z,95308.94
2022-08-03T17:34:18.753Z,95313.88
2022-08-03T17:37:03.889Z,95309.75
2022-08-03T17:39:57.573Z,95315.00
2022-08-03T17:42:31.934Z,95320.94
2022-08-03T17:45:04.013Z,95321.84
2022-08-03T17:47:41.848Z,95329.53
2022-08-03T17:50:23.532Z,95327.72
2022-08-03T17:53:07.780Z,95330.25
2022-08-03T17:55:58.288Z,95325.91
2022-08-03T17:58:43.720Z,95334.38
2022-08-03T18:02:03.399Z,95339.22
2022-08-03T18:04:29.751Z,95342.50
2022-08-03T18:06:59.764Z,95350.88
2022-08-03T18:10:03.938Z,95351.28
2022-08-03T18:12:26.035Z,95354.88
2022-08-03T18:15:01.226Z,95354.09
2022-08-03T18:17:55.905Z,95358.09
2022-08-03T18:20:31.244Z,95362.47
2022-08-03T18:23:04.669Z,95362.09
2022-08-03T18:25:42.737Z,95363.25
2022-08-03T18:28:18.858Z,95359.28
2022-08-03T18:30:54.194Z,95369.22
2022-08-03T18:34:18.951Z,95371.56
2022-08-03T18:36:15.329Z,95366.31
2022-08-03T18:38:47.434Z,95373.03
2022-08-03T18:41:21.999Z,95366.59
2022-08-03T18:44:08.995Z,95365.69
2022-08-03T18:46:48.777Z,95379.03
2022-08-03T18:49:28.994Z,95376.88
2022-08-03T18:52:03.475Z,95372.75
2022-08-03T18:54:45.822Z,95383.31
2022-08-03T18:57:30.454Z,95392.28
2022-08-03T19:00:12.166Z,95386.53
2022-08-03T19:02:48.612Z,95386.75
2022-08-03T19:05:19.898Z,95383.34
2022-08-03T19:07:58.334Z,95388.31
2022-08-03T19:10:32.223Z,95387.41
2022-08-03T19:13:05.427Z,95385.25
2022-08-03T19:15:50.970Z,95396.97
2022-08-03T19:18:22.071Z,95398.31
2022-08-03T19:20:54.639Z,95393.78
2022-08-03T19:23:26.003Z,95396.34
2022-08-03T19:26:00.366Z,95396.56
2022-08-03T19:28:30.376Z,95401.13
2022-08-03T19:31:02.842Z,95396.13
2022-08-03T19:33:55.711Z,95400.25
2022-08-03T19:36:27.460Z,95405.59
2022-08-03T19:38:56.711Z,95400.59
2022-08-03T19:41:31.061Z,95406.75
2022-08-03T19:44:11.630Z,95413.25
2022-08-03T19:46:47.832Z,95412.22
2022-08-03T19:49:17.872Z,95402.53
2022-08-03T19:52:01.194Z,95405.88
2022-08-03T19:54:45.658Z,95402.88
2022-08-03T19:57:24.642Z,95406.09
2022-08-03T19:59:54.447Z,95407.16
2022-08-03T20:02:26.694Z,95408.53
2022-08-03T20:04:56.744Z,95412.75
2022-08-03T20:07:25.447Z,95409.44
2022-08-03T20:09:56.444Z,95406.09
2022-08-03T20:12:27.515Z,95412.94
2022-08-03T20:14:56.963Z,95411.72
2022-08-03T20:17:56.063Z,95412.69
2022-08-03T20:20:15.020Z,95412.81
2022-08-03T20:22:46.256Z,95411.91
2022-08-03T20:25:20.819Z,95404.63
2022-08-03T20:28:07.356Z,95411.56
2022-08-03T20:30:42.511Z,95413.22
2022-08-03T20:33:12.317Z,95412.72
2022-08-03T20:35:48.830Z,95414.75
2022-08-03T20:38:17.545Z,95409.81
2022-08-03T20:40:46.567Z,95407.75
2022-08-03T20:43:15.941Z,95412.31
2022-08-03T20:45:58.490Z,95405.34
2022-08-03T20:48:35.695Z,95413.06
2022-08-03T20:51:05.959Z,95415.53
2022-08-03T20:54:00.555Z,95412.66
2022-08-03T20:56:33.652Z,95413.28
2022-08-03T20:59:03.954Z,95412.28
2022-08-03T21:01:36.691Z,95417.31
2022-08-03T21:04:09.530Z,95409.66
2022-08-03T21:06:53.287Z,95413.38
2022-08-03T21:09:33.416Z,95418.66
2022-08-03T21:12:05.590Z,95419.72
2022-08-03T21:14:40.307Z,95410.84
2022-08-03T21:17:25.058Z,95408.34
2022-08-03T21:19:59.945Z,95410.09
2022-08-03T21:22:31.669Z,95407.00
2022-08-03T21:25:04.783Z,95409.53
2022-08-03T21:27:33.149Z,95405.88
2022-08-03T21:30:03.327Z,95403.25
2022-08-03T21:32:32.559Z,95406.94
2022-08-03T21:35:02.566Z,95403.94
2022-08-03T21:37:30.326Z,95406.47
2022-08-03T21:39:58.243Z,95408.78
2022-08-03T21:42:26.016Z,95407.25
2022-08-03T21:44:54.267Z,95412.00
2022-08-03T21:47:23.681Z,95409.13
2022-08-03T21:50:08.204Z,95404.97
2022-08-03T21:52:42.737Z,95405.16
2022-08-03T21:55:20.262Z,95405.75
2022-08-03T21:57:52.971Z,95401.94
2022-08-03T22:00:23.052Z,95406.97
2022-08-03T22:02:55.319Z,95400.09
2022-08-03T22:05:29.001Z,95399.50
2022-08-03T22:08:13.481Z,95405.56
2022-08-03T22:10:41.955Z,95410.84
2022-08-03T22:13:09.654Z,95401.66
2022-08-03T22:15:37.372Z,95405.41
2022-08-03T22:18:05.923Z,95409.19
2022-08-03T22:20:33.665Z,95403.09
2022-08-03T22:23:03.981Z,95403.31
2022-08-03T22:25:36.288Z,95404.78
2022-08-03T22:28:08.335Z,95406.50
2022-08-03T22:30:36.395Z,95407.28
2022-08-03T22:33:11.048Z,95406.56
2022-08-03T22:35:47.407Z,95403.47
2022-08-03T22:38:16.772Z,95407.34
2022-08-03T22:40:49.857Z,95400.94
2022-08-03T22:43:17.699Z,95399.97
2022-08-03T22:46:09.714Z,95406.47
2022-08-03T22:48:36.530Z,95405.41
2022-08-03T22:51:09.204Z,95407.22
2022-08-03T22:53:37.219Z,95405.63
2022-08-03T22:56:07.492Z,95407.28
2022-08-03T22:58:35.311Z,95405.53
